Liberty Pride — KRAU — position and weather

sailwx.info

Track history (hours):
 
Tides and Currents Weather Stations Pressure Air Temp Water Temp Dewpoint Dewpoint Depression Visibility Wind Speed Wind Dir Waves Ship Positions

Liberty Pride

Owner: Liberty Pride Corporation, Lake Success, NY. More information available from US FCC via Universal Licensing System and Coast Guard Vessel Documentation Center.

Last reported at 2017-Nov-23 14:20 UTC. Time now 2017-Dec-17 12:09 UTC.
Position N 35°26' E 028°23'.
Warning: this ship's position is 23 days out of date.

Length 200 m; draft 9 m.

Type: Cargo ship. MMSI: 368473000.

Date/timePositionNaut miles runAvg speedWind from/ knotsBaromVisibWave heightAir tempDewpointWater temp
2017-Nov-23 14:20N 35°26' E 028°23'1616.8
2017-Nov-23 13:25N 35°30' E 028°05'1016.9
2017-Nov-23 12:49N 35°32' E 027°53'1316.0
2017-Nov-23 11:59N 35°38' E 027°38'4316.8
2017-Nov-23 09:24N 36°11' E 027°03'716.8
2017-Nov-23 09:00N 36°16' E 026°58'916.8
2017-Nov-23 08:27N 36°23' E 026°50'1016.6
2017-Nov-23 07:51N 36°30' E 026°42'616.6
2017-Nov-23 07:30N 36°35' E 026°37'816.5
2017-Nov-23 07:00N 36°41' E 026°30'816.8
2017-Nov-23 06:30N 36°47' E 026°23'816.9
2017-Nov-23 06:00N 36°54' E 026°17'816.7
2017-Nov-23 05:30N 37°00' E 026°11'816.5
2017-Nov-23 05:00N 37°07' E 026°05'816.5
2017-Nov-23 04:30N 37°14' E 025°59'  
2017-Nov-18 02:05N 36°00' W 005°10'119.5
2017-Nov-18 02:01N 35°60' W 005°11'1019.0
2017-Nov-18 01:30N 35°58' W 005°23'24517.2
2017-Nov-17 11:15N 36°34' W 010°24'69816.9
2017-Nov-15 18:00N 39°54' W 024°36'38916.2 170 / 161007.1 19.016.720.0
2017-Nov-14 18:00N 41°00' W 033°00'38015.8 070 / 71012.110.8 18.515.620.4
2017-Nov-13 18:00N 41°30' W 041°24'   010 / 241019.6 17.315.121.6
Track history (hours):
 
Tides and Currents Weather Stations Pressure Air Temp Water Temp Dewpoint Dewpoint Depression Visibility Wind Speed Wind Dir Waves Ship Positions

Liberty Pride

Owner: Liberty Pride Corporation, Lake Success, NY. More information available from US FCC via Universal Licensing System and Coast Guard Vessel Documentation Center.

Last reported at 2017-Nov-23 14:20 UTC. Time now 2017-Dec-17 12:09 UTC.
Position N 35°26' E 028°23'.
Warning: this ship's position is 23 days out of date.

Length 200 m; draft 9 m.

Type: Cargo ship. MMSI: 368473000.

Date/timePositionNaut miles runAvg speedWind from/ knotsBaromVisibWave heightAir tempDewpointWater temp
2017-Nov-23 14:20N 35°26' E 028°23'1616.8
2017-Nov-23 13:25N 35°30' E 028°05'1016.9
2017-Nov-23 12:49N 35°32' E 027°53'1316.0
2017-Nov-23 11:59N 35°38' E 027°38'4316.8
2017-Nov-23 09:24N 36°11' E 027°03'716.8
2017-Nov-23 09:00N 36°16' E 026°58'916.8
2017-Nov-23 08:27N 36°23' E 026°50'1016.6
2017-Nov-23 07:51N 36°30' E 026°42'616.6
2017-Nov-23 07:30N 36°35' E 026°37'816.5
2017-Nov-23 07:00N 36°41' E 026°30'816.8
2017-Nov-23 06:30N 36°47' E 026°23'816.9
2017-Nov-23 06:00N 36°54' E 026°17'816.7
2017-Nov-23 05:30N 37°00' E 026°11'816.5
2017-Nov-23 05:00N 37°07' E 026°05'816.5
2017-Nov-23 04:30N 37°14' E 025°59'  
2017-Nov-18 02:05N 36°00' W 005°10'119.5
2017-Nov-18 02:01N 35°60' W 005°11'1019.0
2017-Nov-18 01:30N 35°58' W 005°23'24517.2
2017-Nov-17 11:15N 36°34' W 010°24'69816.9
2017-Nov-15 18:00N 39°54' W 024°36'38916.2 170 / 161007.1 19.016.720.0
2017-Nov-14 18:00N 41°00' W 033°00'38015.8 070 / 71012.110.8 18.515.620.4
2017-Nov-13 18:00N 41°30' W 041°24'   010 / 241019.6 17.315.121.6

Dump ship's entire track history